This is the latest recevied weather packets stored in our database for station/object HS5GDX-4. If no packets are shown the sender has not sent any weather packets the latest 10 day(s).
| Time | Temp. | Humidity | Pressure | Rain* | Wind** | Luminosity | Snow |
|---|---|---|---|---|---|---|---|
| 1778222800 | 36.11° C | 39% | 966 hPa | - | - | 0 W/m² | - |
| 1778221871 | 35.56° C | 41% | 966 hPa | - | - | 0 W/m² | - |
| 1778220943 | 35.56° C | 41% | 967 hPa | - | - | 0 W/m² | - |
| 1778220012 | 35° C | 42% | 967 hPa | - | - | 0 W/m² | - |
| 1778219083 | 33.33° C | 47% | 968 hPa | - | - | 0 W/m² | - |
| 1778218155 | 33.33° C | 50% | 968 hPa | - | - | 0 W/m² | - |
| 1778216297 | 33.33° C | 47% | 969 hPa | - | - | 0 W/m² | - |
| 1778196228 | 30.56° C | 58% | 968 hPa | - | - | 0 W/m² | - |
| 1778193442 | 30.56° C | 55% | 967 hPa | - | - | 0 W/m² | - |
| 1778185081 | 33.33° C | 48% | 967 hPa | - | - | 0 W/m² | - |
| 1778182293 | 33.33° C | 49% | 967 hPa | - | - | 0 W/m² | - |
| 1778181364 | 33.33° C | 49% | 967 hPa | - | - | 0 W/m² | - |
| 1778180436 | 33.33° C | 49% | 967 hPa | - | - | 0 W/m² | - |
| 1778178577 | 32.78° C | 50% | 968 hPa | - | - | 0 W/m² | - |
| 1778177649 | 33.33° C | 48% | 968 hPa | - | - | 0 W/m² | - |
| 1778176721 | 33.33° C | 49% | 968 hPa | - | - | 0 W/m² | - |
| 1778173005 | 33.89° C | 48% | 969 hPa | - | - | 0 W/m² | - |
| 1778171146 | 34.44° C | 47% | 969 hPa | - | - | 0 W/m² | - |
| 1778168363 | 33.89° C | 46% | 968 hPa | - | - | 0 W/m² | - |
| 1778166508 | 33.33° C | 47% | 968 hPa | - | - | 0 W/m² | - |
| 1778165580 | 32.22° C | 48% | 967 hPa | - | - | 0 W/m² | - |
| 1778164652 | 33.89° C | 46% | 967 hPa | - | - | 0 W/m² | - |
| 1778164170 | 35.56° C | 41% | 967 hPa | - | - | 0 W/m² | - |
| 1778163243 | 35.56° C | 39% | 966 hPa | - | - | 0 W/m² | - |
| 1778160461 | 34.44° C | 40% | 965 hPa | - | - | 0 W/m² | - |
* Rain since midnight (hover to see other rain measurements)
** Current wind speed in m/s (hover to see current wind gust speed)